sensor_id;sensor_type;location;lat;lon;timestamp;pressure;altitude;pressure_sealevel;temperature;humidity
41383;BME280;27971;53.902;9.118;2022-11-20T00:05:32;101311.0;;;20.25;23.94
41383;BME280;27971;53.902;9.118;2022-11-20T00:07:33;101306.0;;;21.17;22.91
41383;BME280;27971;53.902;9.118;2022-11-20T00:09:35;101305.0;;;21.33;22.19
41383;BME280;27971;53.902;9.118;2022-11-20T00:11:38;101303.0;;;21.95;21.63
41383;BME280;27971;53.902;9.118;2022-11-20T00:13:40;101302.0;;;22.65;21.48
41383;BME280;27971;53.902;9.118;2022-11-20T00:15:43;101301.0;;;22.51;21.41
41383;BME280;27971;53.902;9.118;2022-11-20T00:17:46;101300.0;;;22.86;21.43
41383;BME280;27971;53.902;9.118;2022-11-20T00:19:48;101300.0;;;22.9;21.36
41383;BME280;27971;53.902;9.118;2022-11-20T00:21:51;101301.0;;;22.11;21.45
41383;BME280;27971;53.902;9.118;2022-11-20T00:23:55;101299.0;;;22.59;21.08
41383;BME280;27971;53.902;9.118;2022-11-20T00:26:00;101299.0;;;22.69;21.04
41383;BME280;27971;53.902;9.118;2022-11-20T00:28:00;101300.0;;;22.69;20.99
41383;BME280;27971;53.902;9.118;2022-11-20T00:30:04;101300.0;;;22.35;21.13
41383;BME280;27971;53.902;9.118;2022-11-20T00:32:06;101299.0;;;22.65;21.04
41383;BME280;27971;53.902;9.118;2022-11-20T00:34:09;101297.0;;;22.39;21.14
41383;BME280;27971;53.902;9.118;2022-11-20T00:36:13;101296.0;;;22.28;21.21
41383;BME280;27971;53.902;9.118;2022-11-20T00:38:13;101294.0;;;22.5;21.07
41383;BME280;27971;53.902;9.118;2022-11-20T00:40:16;101293.0;;;22.48;21.28
41383;BME280;27971;53.902;9.118;2022-11-20T00:42:18;101293.0;;;22.51;21.17
41383;BME280;27971;53.902;9.118;2022-11-20T00:44:22;101294.0;;;22.76;21.24
41383;BME280;27971;53.902;9.118;2022-11-20T00:46:26;101295.0;;;22.51;21.35
41383;BME280;27971;53.902;9.118;2022-11-20T00:48:27;101293.0;;;24.05;21.56
41383;BME280;27971;53.902;9.118;2022-11-20T00:50:30;101289.0;;;25.28;22.34
41383;BME280;27971;53.902;9.118;2022-11-20T00:52:33;101289.0;;;25.47;22.78
41383;BME280;27971;53.902;9.118;2022-11-20T00:54:35;101290.0;;;24.89;23.52
41383;BME280;27971;53.902;9.118;2022-11-20T00:56:38;101290.0;;;24.5;24.04
41383;BME280;27971;53.902;9.118;2022-11-20T00:58:42;101291.0;;;24.68;24.15
41383;BME280;27971;53.902;9.118;2022-11-20T01:00:44;101289.0;;;24.89;24.14
41383;BME280;27971;53.902;9.118;2022-11-20T01:02:46;101285.0;;;24.39;24.53
41383;BME280;27971;53.902;9.118;2022-11-20T01:04:49;101283.0;;;24.44;24.51
41383;BME280;27971;53.902;9.118;2022-11-20T01:06:52;101281.0;;;24.43;24.53
41383;BME280;27971;53.902;9.118;2022-11-20T01:08:56;101280.0;;;24.2;24.77
41383;BME280;27971;53.902;9.118;2022-11-20T01:10:59;101279.0;;;24.45;24.68
41383;BME280;27971;53.902;9.118;2022-11-20T01:13:00;101277.0;;;24.2;24.84
41383;BME280;27971;53.902;9.118;2022-11-20T01:15:03;101277.0;;;24.27;24.89
41383;BME280;27971;53.902;9.118;2022-11-20T01:17:05;101276.0;;;24.18;24.96
41383;BME280;27971;53.902;9.118;2022-11-20T01:19:11;101275.0;;;24.18;25.02
41383;BME280;27971;53.902;9.118;2022-11-20T01:21:13;101275.0;;;23.91;25.17
41383;BME280;27971;53.902;9.118;2022-11-20T01:23:14;101274.0;;;23.9;25.27
41383;BME280;27971;53.902;9.118;2022-11-20T01:25:17;101272.0;;;24.07;25.09
41383;BME280;27971;53.902;9.118;2022-11-20T01:27:19;101271.0;;;24.27;24.96
41383;BME280;27971;53.902;9.118;2022-11-20T01:29:23;101270.0;;;23.97;25.2
41383;BME280;27971;53.902;9.118;2022-11-20T01:31:27;101269.0;;;23.69;25.4
41383;BME280;27971;53.902;9.118;2022-11-20T01:33:28;101268.0;;;23.94;25.33
41383;BME280;27971;53.902;9.118;2022-11-20T01:35:30;101267.0;;;23.76;25.41
41383;BME280;27971;53.902;9.118;2022-11-20T01:37:33;101265.0;;;23.66;25.6
41383;BME280;27971;53.902;9.118;2022-11-20T01:39:35;101264.0;;;23.51;25.62
41383;BME280;27971;53.902;9.118;2022-11-20T01:41:37;101263.0;;;23.52;25.62
41383;BME280;27971;53.902;9.118;2022-11-20T01:43:40;101261.0;;;23.48;25.54
41383;BME280;27971;53.902;9.118;2022-11-20T01:45:56;101258.0;;;23.48;25.54
41383;BME280;27971;53.902;9.118;2022-11-20T01:47:46;101254.0;;;23.73;25.52
41383;BME280;27971;53.902;9.118;2022-11-20T01:49:51;101252.0;;;23.74;25.47
41383;BME280;27971;53.902;9.118;2022-11-20T01:51:52;101250.0;;;23.66;25.45
41383;BME280;27971;53.902;9.118;2022-11-20T01:53:54;101251.0;;;23.55;25.61
41383;BME280;27971;53.902;9.118;2022-11-20T01:55:57;101250.0;;;23.72;25.47
41383;BME280;27971;53.902;9.118;2022-11-20T01:58:00;101248.0;;;23.65;25.49
41383;BME280;27971;53.902;9.118;2022-11-20T02:00:05;101245.0;;;23.58;25.5
41383;BME280;27971;53.902;9.118;2022-11-20T02:02:05;101241.0;;;23.62;25.47
41383;BME280;27971;53.902;9.118;2022-11-20T02:04:09;101241.0;;;23.54;25.54
41383;BME280;27971;53.902;9.118;2022-11-20T02:06:14;101239.0;;;23.62;25.5
41383;BME280;27971;53.902;9.118;2022-11-20T02:08:14;101238.0;;;23.57;25.56
41383;BME280;27971;53.902;9.118;2022-11-20T02:10:16;101234.0;;;23.49;25.54
41383;BME280;27971;53.902;9.118;2022-11-20T02:12:18;101232.0;;;23.45;25.6
41383;BME280;27971;53.902;9.118;2022-11-20T02:14:22;101231.0;;;23.42;25.66
41383;BME280;27971;53.902;9.118;2022-11-20T02:16:26;101230.0;;;23.34;25.72
41383;BME280;27971;53.902;9.118;2022-11-20T02:18:27;101229.0;;;23.05;26.0
41383;BME280;27971;53.902;9.118;2022-11-20T02:20:29;101228.0;;;23.26;25.85
41383;BME280;27971;53.902;9.118;2022-11-20T02:22:37;101227.0;;;23.09;25.92
41383;BME280;27971;53.902;9.118;2022-11-20T02:24:34;101226.0;;;23.29;25.84
41383;BME280;27971;53.902;9.118;2022-11-20T02:26:43;101225.0;;;23.21;25.92
41383;BME280;27971;53.902;9.118;2022-11-20T02:28:39;101223.0;;;22.96;26.09
41383;BME280;27971;53.902;9.118;2022-11-20T02:30:42;101223.0;;;22.99;26.02
41383;BME280;27971;53.902;9.118;2022-11-20T02:32:45;101223.0;;;23.04;25.97
41383;BME280;27971;53.902;9.118;2022-11-20T02:34:48;101226.0;;;23.03;25.98
41383;BME280;27971;53.902;9.118;2022-11-20T02:36:52;101227.0;;;22.82;26.16
41383;BME280;27971;53.902;9.118;2022-11-20T02:38:54;101227.0;;;22.74;26.25
41383;BME280;27971;53.902;9.118;2022-11-20T02:40:56;101227.0;;;22.86;26.14
41383;BME280;27971;53.902;9.118;2022-11-20T02:43:00;101225.0;;;22.87;26.07
41383;BME280;27971;53.902;9.118;2022-11-20T02:45:02;101223.0;;;22.73;26.21
41383;BME280;27971;53.902;9.118;2022-11-20T02:47:05;101220.0;;;22.9;26.13
41383;BME280;27971;53.902;9.118;2022-11-20T02:49:08;101218.0;;;22.93;26.02
41383;BME280;27971;53.902;9.118;2022-11-20T02:51:10;101214.0;;;22.84;26.12
41383;BME280;27971;53.902;9.118;2022-11-20T02:53:14;101212.0;;;23.05;25.93
41383;BME280;27971;53.902;9.118;2022-11-20T02:55:16;101211.0;;;22.81;26.08
41383;BME280;27971;53.902;9.118;2022-11-20T02:57:18;101211.0;;;23.02;25.94
41383;BME280;27971;53.902;9.118;2022-11-20T02:59:22;101209.0;;;22.86;26.01
41383;BME280;27971;53.902;9.118;2022-11-20T03:01:24;101209.0;;;22.8;26.1
41383;BME280;27971;53.902;9.118;2022-11-20T03:03:27;101208.0;;;22.74;26.13
41383;BME280;27971;53.902;9.118;2022-11-20T03:05:30;101207.0;;;22.74;26.13
41383;BME280;27971;53.902;9.118;2022-11-20T03:07:32;101205.0;;;22.79;26.13
41383;BME280;27971;53.902;9.118;2022-11-20T03:09:35;101208.0;;;22.72;26.17
41383;BME280;27971;53.902;9.118;2022-11-20T03:11:38;101206.0;;;22.75;26.14
41383;BME280;27971;53.902;9.118;2022-11-20T03:13:40;101204.0;;;22.8;26.12
41383;BME280;27971;53.902;9.118;2022-11-20T03:15:43;101202.0;;;22.77;26.05
41383;BME280;27971;53.902;9.118;2022-11-20T03:17:45;101204.0;;;23.07;25.83
41383;BME280;27971;53.902;9.118;2022-11-20T03:19:47;101204.0;;;23.05;25.84
41383;BME280;27971;53.902;9.118;2022-11-20T03:21:49;101201.0;;;23.11;25.76
41383;BME280;27971;53.902;9.118;2022-11-20T03:23:53;101197.0;;;23.02;25.8
41383;BME280;27971;53.902;9.118;2022-11-20T03:25:54;101194.0;;;22.98;25.84
41383;BME280;27971;53.902;9.118;2022-11-20T03:27:57;101191.0;;;22.96;25.83
41383;BME280;27971;53.902;9.118;2022-11-20T03:29:59;101187.0;;;22.7;26.06
41383;BME280;27971;53.902;9.118;2022-11-20T03:32:02;101185.0;;;22.77;26.06
41383;BME280;27971;53.902;9.118;2022-11-20T03:34:04;101183.0;;;22.76;26.04
41383;BME280;27971;53.902;9.118;2022-11-20T03:36:09;101181.0;;;22.72;26.1
41383;BME280;27971;53.902;9.118;2022-11-20T03:38:10;101178.0;;;22.82;25.99
41383;BME280;27971;53.902;9.118;2022-11-20T03:40:14;101176.0;;;22.85;25.95
41383;BME280;27971;53.902;9.118;2022-11-20T03:42:16;101179.0;;;22.76;26.03
41383;BME280;27971;53.902;9.118;2022-11-20T03:44:21;101181.0;;;22.93;25.93
41383;BME280;27971;53.902;9.118;2022-11-20T03:46:21;101180.0;;;23.02;25.87
41383;BME280;27971;53.902;9.118;2022-11-20T03:48:24;101179.0;;;22.93;25.9
41383;BME280;27971;53.902;9.118;2022-11-20T03:50:26;101179.0;;;22.99;25.82
41383;BME280;27971;53.902;9.118;2022-11-20T03:52:29;101181.0;;;22.97;25.81
41383;BME280;27971;53.902;9.118;2022-11-20T03:54:31;101186.0;;;22.92;25.81
41383;BME280;27971;53.902;9.118;2022-11-20T03:56:36;101187.0;;;22.97;25.78
41383;BME280;27971;53.902;9.118;2022-11-20T03:58:36;101184.0;;;22.92;25.83
41383;BME280;27971;53.902;9.118;2022-11-20T04:00:39;101183.0;;;22.84;25.87
41383;BME280;27971;53.902;9.118;2022-11-20T04:02:42;101182.0;;;22.89;25.83
41383;BME280;27971;53.902;9.118;2022-11-20T04:04:44;101183.0;;;22.99;25.77
41383;BME280;27971;53.902;9.118;2022-11-20T04:06:46;101185.0;;;22.93;25.75
41383;BME280;27971;53.902;9.118;2022-11-20T04:08:49;101184.0;;;22.88;25.82
41383;BME280;27971;53.902;9.118;2022-11-20T04:10:52;101182.0;;;23.0;25.8
41383;BME280;27971;53.902;9.118;2022-11-20T04:12:54;101178.0;;;22.89;25.88
41383;BME280;27971;53.902;9.118;2022-11-20T04:14:56;101175.0;;;22.8;25.91
41383;BME280;27971;53.902;9.118;2022-11-20T04:17:00;101173.0;;;22.67;25.99
41383;BME280;27971;53.902;9.118;2022-11-20T04:19:04;101170.0;;;22.72;25.96
41383;BME280;27971;53.902;9.118;2022-11-20T04:21:06;101165.0;;;22.84;25.96
41383;BME280;27971;53.902;9.118;2022-11-20T04:23:09;101164.0;;;22.79;25.98
41383;BME280;27971;53.902;9.118;2022-11-20T04:25:12;101162.0;;;22.72;26.01
41383;BME280;27971;53.902;9.118;2022-11-20T04:27:15;101159.0;;;22.63;26.07
41383;BME280;27971;53.902;9.118;2022-11-20T04:29:17;101157.0;;;22.65;26.07
41383;BME280;27971;53.902;9.118;2022-11-20T04:31:22;101157.0;;;22.67;26.02
41383;BME280;27971;53.902;9.118;2022-11-20T04:33:24;101158.0;;;22.64;26.05
41383;BME280;27971;53.902;9.118;2022-11-20T04:35:26;101158.0;;;22.61;26.08
41383;BME280;27971;53.902;9.118;2022-11-20T04:37:28;101158.0;;;22.59;26.08
41383;BME280;27971;53.902;9.118;2022-11-20T04:39:30;101155.0;;;22.7;26.01
41383;BME280;27971;53.902;9.118;2022-11-20T04:41:34;101156.0;;;22.66;26.04
41383;BME280;27971;53.902;9.118;2022-11-20T04:43:36;101156.0;;;22.67;26.09
41383;BME280;27971;53.902;9.118;2022-11-20T04:45:38;101156.0;;;22.64;26.04
41383;BME280;27971;53.902;9.118;2022-11-20T04:47:42;101155.0;;;22.62;26.06
41383;BME280;27971;53.902;9.118;2022-11-20T04:49:44;101155.0;;;22.64;26.08
41383;BME280;27971;53.902;9.118;2022-11-20T04:51:47;101155.0;;;22.69;26.04
41383;BME280;27971;53.902;9.118;2022-11-20T04:53:50;101154.0;;;22.65;26.05
41383;BME280;27971;53.902;9.118;2022-11-20T04:55:59;101154.0;;;22.62;26.07
41383;BME280;27971;53.902;9.118;2022-11-20T04:57:55;101152.0;;;22.62;26.18
41383;BME280;27971;53.902;9.118;2022-11-20T04:59:58;101150.0;;;22.51;26.19
41383;BME280;27971;53.902;9.118;2022-11-20T05:02:01;101150.0;;;22.62;26.15
41383;BME280;27971;53.902;9.118;2022-11-20T05:04:03;101150.0;;;22.59;26.14
41383;BME280;27971;53.902;9.118;2022-11-20T05:06:06;101149.0;;;22.51;26.21
41383;BME280;27971;53.902;9.118;2022-11-20T05:08:08;101146.0;;;22.5;26.22
41383;BME280;27971;53.902;9.118;2022-11-20T05:10:10;101147.0;;;22.56;26.17
41383;BME280;27971;53.902;9.118;2022-11-20T05:12:14;101145.0;;;22.56;26.24
41383;BME280;27971;53.902;9.118;2022-11-20T05:14:16;101138.0;;;22.49;26.28
41383;BME280;27971;53.902;9.118;2022-11-20T05:16:20;101137.0;;;22.54;26.25
41383;BME280;27971;53.902;9.118;2022-11-20T05:18:22;101137.0;;;22.44;26.2
41383;BME280;27971;53.902;9.118;2022-11-20T05:20:24;101136.0;;;22.59;26.17
41383;BME280;27971;53.902;9.118;2022-11-20T05:22:27;101137.0;;;22.62;26.2
41383;BME280;27971;53.902;9.118;2022-11-20T05:24:29;101137.0;;;22.47;26.31
41383;BME280;27971;53.902;9.118;2022-11-20T05:26:31;101138.0;;;22.42;26.31
41383;BME280;27971;53.902;9.118;2022-11-20T05:28:35;101138.0;;;22.44;26.29
41383;BME280;27971;53.902;9.118;2022-11-20T05:30:37;101138.0;;;22.35;26.36
41383;BME280;27971;53.902;9.118;2022-11-20T05:32:39;101137.0;;;22.34;26.35
41383;BME280;27971;53.902;9.118;2022-11-20T05:34:42;101135.0;;;22.37;26.42
41383;BME280;27971;53.902;9.118;2022-11-20T05:36:44;101132.0;;;22.43;26.36
41383;BME280;27971;53.902;9.118;2022-11-20T05:38:46;101130.0;;;22.46;26.32
41383;BME280;27971;53.902;9.118;2022-11-20T05:40:49;101127.0;;;22.55;26.32
41383;BME280;27971;53.902;9.118;2022-11-20T05:42:51;101125.0;;;22.56;26.29
41383;BME280;27971;53.902;9.118;2022-11-20T05:44:53;101123.0;;;22.42;26.35
41383;BME280;27971;53.902;9.118;2022-11-20T05:46:56;101119.0;;;22.29;26.45
41383;BME280;27971;53.902;9.118;2022-11-20T05:48:58;101116.0;;;22.43;26.44
41383;BME280;27971;53.902;9.118;2022-11-20T05:51:02;101114.0;;;22.66;26.22
41383;BME280;27971;53.902;9.118;2022-11-20T05:53:03;101111.0;;;22.33;26.49
41383;BME280;27971;53.902;9.118;2022-11-20T05:55:07;101109.0;;;22.61;26.35
41383;BME280;27971;53.902;9.118;2022-11-20T05:57:09;101103.0;;;22.58;26.37
41383;BME280;27971;53.902;9.118;2022-11-20T05:59:11;101098.0;;;22.7;26.31
41383;BME280;27971;53.902;9.118;2022-11-20T06:01:16;101095.0;;;22.87;26.12
41383;BME280;27971;53.902;9.118;2022-11-20T06:03:16;101095.0;;;23.0;26.16
41383;BME280;27971;53.902;9.118;2022-11-20T06:05:19;101096.0;;;22.62;26.63
41383;BME280;27971;53.902;9.118;2022-11-20T06:07:21;101095.0;;;22.43;26.98
41383;BME280;27971;53.902;9.118;2022-11-20T06:09:24;101099.0;;;22.47;27.06
41383;BME280;27971;53.902;9.118;2022-11-20T06:11:26;101104.0;;;22.69;26.91
41383;BME280;27971;53.902;9.118;2022-11-20T06:13:28;101103.0;;;22.81;26.75
41383;BME280;27971;53.902;9.118;2022-11-20T06:15:31;101099.0;;;22.84;26.43
41383;BME280;27971;53.902;9.118;2022-11-20T06:17:34;101094.0;;;22.94;26.2
41383;BME280;27971;53.902;9.118;2022-11-20T06:19:37;101090.0;;;23.19;25.91
41383;BME280;27971;53.902;9.118;2022-11-20T06:21:39;101087.0;;;23.35;25.67
41383;BME280;27971;53.902;9.118;2022-11-20T06:23:42;101085.0;;;23.56;25.28
41383;BME280;27971;53.902;9.118;2022-11-20T06:25:44;101095.0;;;23.58;25.06
41383;BME280;27971;53.902;9.118;2022-11-20T06:27:46;101106.0;;;23.99;24.68
41383;BME280;27971;53.902;9.118;2022-11-20T06:29:49;101116.0;;;24.02;24.63
41383;BME280;27971;53.902;9.118;2022-11-20T06:31:51;101119.0;;;24.0;24.48
41383;BME280;27971;53.902;9.118;2022-11-20T06:33:54;101119.0;;;24.18;24.26
41383;BME280;27971;53.902;9.118;2022-11-20T06:35:57;101116.0;;;24.18;24.13
41383;BME280;27971;53.902;9.118;2022-11-20T06:37:59;101114.0;;;24.45;23.91
41383;BME280;27971;53.902;9.118;2022-11-20T06:40:02;101117.0;;;24.3;23.97
41383;BME280;27971;53.902;9.118;2022-11-20T06:42:05;101119.0;;;24.34;23.87
41383;BME280;27971;53.902;9.118;2022-11-20T06:44:07;101120.0;;;24.46;23.78
41383;BME280;27971;53.902;9.118;2022-11-20T06:46:12;101119.0;;;24.66;23.64
41383;BME280;27971;53.902;9.118;2022-11-20T06:48:13;101118.0;;;25.07;23.35
41383;BME280;27971;53.902;9.118;2022-11-20T06:50:16;101115.0;;;24.91;23.37
41383;BME280;27971;53.902;9.118;2022-11-20T06:52:18;101115.0;;;24.86;23.2
41383;BME280;27971;53.902;9.118;2022-11-20T06:54:22;101116.0;;;23.43;24.18
41383;BME280;27971;53.902;9.118;2022-11-20T06:56:24;101113.0;;;24.57;23.37
41383;BME280;27971;53.902;9.118;2022-11-20T06:58:28;101113.0;;;24.55;23.34
41383;BME280;27971;53.902;9.118;2022-11-20T07:00:30;101116.0;;;24.52;23.36
41383;BME280;27971;53.902;9.118;2022-11-20T07:02:32;101114.0;;;24.47;23.53
41383;BME280;27971;53.902;9.118;2022-11-20T07:04:35;101108.0;;;25.08;22.95
41383;BME280;27971;53.902;9.118;2022-11-20T07:06:37;101105.0;;;25.16;22.96
41383;BME280;27971;53.902;9.118;2022-11-20T07:08:40;101103.0;;;24.85;23.21
41383;BME280;27971;53.902;9.118;2022-11-20T07:10:42;101099.0;;;25.43;22.81
41383;BME280;27971;53.902;9.118;2022-11-20T07:12:49;101099.0;;;23.96;23.8
41383;BME280;27971;53.902;9.118;2022-11-20T07:14:47;101098.0;;;23.74;23.98
41383;BME280;27971;53.902;9.118;2022-11-20T07:16:50;101099.0;;;24.76;23.42
41383;BME280;27971;53.902;9.118;2022-11-20T07:18:53;101101.0;;;24.33;23.74
41383;BME280;27971;53.902;9.118;2022-11-20T07:20:55;101102.0;;;24.1;23.92
41383;BME280;27971;53.902;9.118;2022-11-20T07:22:58;101103.0;;;25.04;23.54
41383;BME280;27971;53.902;9.118;2022-11-20T07:25:01;101103.0;;;24.88;23.51
41383;BME280;27971;53.902;9.118;2022-11-20T07:27:04;101105.0;;;22.92;24.71
41383;BME280;27971;53.902;9.118;2022-11-20T07:29:05;101105.0;;;24.69;23.56
41383;BME280;27971;53.902;9.118;2022-11-20T07:31:08;101107.0;;;24.69;23.41
41383;BME280;27971;53.902;9.118;2022-11-20T07:33:10;101109.0;;;24.47;23.5
41383;BME280;27971;53.902;9.118;2022-11-20T07:35:13;101110.0;;;25.11;23.04
41383;BME280;27971;53.902;9.118;2022-11-20T07:37:16;101111.0;;;23.7;23.94
41383;BME280;27971;53.902;9.118;2022-11-20T07:39:18;101111.0;;;23.74;24.05
41383;BME280;27971;53.902;9.118;2022-11-20T07:41:20;101113.0;;;23.62;24.17
41383;BME280;27971;53.902;9.118;2022-11-20T07:43:24;101118.0;;;22.61;24.81
41383;BME280;27971;53.902;9.118;2022-11-20T07:45:26;101116.0;;;23.33;24.32
41383;BME280;27971;53.902;9.118;2022-11-20T07:47:29;101119.0;;;22.03;25.26
41383;BME280;27971;53.902;9.118;2022-11-20T07:49:31;101118.0;;;23.97;24.14
41383;BME280;27971;53.902;9.118;2022-11-20T07:51:34;101116.0;;;24.96;23.51
41383;BME280;27971;53.902;9.118;2022-11-20T07:53:36;101116.0;;;26.06;22.81
41383;BME280;27971;53.902;9.118;2022-11-20T07:55:39;101113.0;;;25.5;23.32
41383;BME280;27971;53.902;9.118;2022-11-20T07:57:42;101111.0;;;25.26;23.66
41383;BME280;27971;53.902;9.118;2022-11-20T07:59:44;101111.0;;;25.71;23.34
41383;BME280;27971;53.902;9.118;2022-11-20T08:01:46;101110.0;;;25.77;23.31
41383;BME280;27971;53.902;9.118;2022-11-20T08:03:48;101108.0;;;25.39;23.54
41383;BME280;27971;53.902;9.118;2022-11-20T08:05:51;101109.0;;;24.3;24.42
41383;BME280;27971;53.902;9.118;2022-11-20T08:07:53;101108.0;;;24.15;24.44
41383;BME280;27971;53.902;9.118;2022-11-20T08:09:55;101114.0;;;22.82;25.39
41383;BME280;27971;53.902;9.118;2022-11-20T08:11:59;101116.0;;;23.72;24.82
41383;BME280;27971;53.902;9.118;2022-11-20T08:14:01;101120.0;;;22.38;25.88
41383;BME280;27971;53.902;9.118;2022-11-20T08:16:05;101115.0;;;23.46;25.06
41383;BME280;27971;53.902;9.118;2022-11-20T08:18:09;101114.0;;;24.03;24.58
41383;BME280;27971;53.902;9.118;2022-11-20T08:20:11;101114.0;;;25.22;23.83
41383;BME280;27971;53.902;9.118;2022-11-20T08:22:13;101111.0;;;24.58;24.18
41383;BME280;27971;53.902;9.118;2022-11-20T08:24:16;101112.0;;;24.24;24.36
41383;BME280;27971;53.902;9.118;2022-11-20T08:26:20;101114.0;;;23.38;24.89
41383;BME280;27971;53.902;9.118;2022-11-20T08:28:21;101116.0;;;24.35;24.35
41383;BME280;27971;53.902;9.118;2022-11-20T08:30:24;101114.0;;;24.98;23.68
41383;BME280;27971;53.902;9.118;2022-11-20T08:32:26;101114.0;;;24.27;24.14
41383;BME280;27971;53.902;9.118;2022-11-20T08:34:29;101114.0;;;24.82;23.68
41383;BME280;27971;53.902;9.118;2022-11-20T08:36:33;101115.0;;;24.85;23.48
41383;BME280;27971;53.902;9.118;2022-11-20T08:38:35;101117.0;;;24.09;23.39
41383;BME280;27971;53.902;9.118;2022-11-20T08:40:37;101116.0;;;24.03;22.25
41383;BME280;27971;53.902;9.118;2022-11-20T08:42:46;101116.0;;;23.77;19.84
41383;BME280;27971;53.902;9.118;2022-11-20T08:44:43;101115.0;;;23.73;17.06
41383;BME280;27971;53.902;9.118;2022-11-20T08:46:45;101115.0;;;24.36;16.9
41383;BME280;27971;53.902;9.118;2022-11-20T08:48:48;101118.0;;;24.26;17.5
41383;BME280;27971;53.902;9.118;2022-11-20T08:50:50;101119.0;;;23.67;18.13
41383;BME280;27971;53.902;9.118;2022-11-20T08:52:53;101126.0;;;22.24;19.31
41383;BME280;27971;53.902;9.118;2022-11-20T08:54:55;101128.0;;;22.18;19.16
41383;BME280;27971;53.902;9.118;2022-11-20T08:56:57;101128.0;;;21.61;19.4
41383;BME280;27971;53.902;9.118;2022-11-20T08:59:00;101128.0;;;22.85;18.52
41383;BME280;27971;53.902;9.118;2022-11-20T09:01:02;101135.0;;;22.04;18.96
41383;BME280;27971;53.902;9.118;2022-11-20T09:03:05;101137.0;;;21.87;19.22
41383;BME280;27971;53.902;9.118;2022-11-20T09:05:08;101137.0;;;21.62;19.22
41383;BME280;27971;53.902;9.118;2022-11-20T09:07:11;101139.0;;;20.65;19.96
41383;BME280;27971;53.902;9.118;2022-11-20T09:09:13;101141.0;;;20.89;19.87
41383;BME280;27971;53.902;9.118;2022-11-20T09:11:15;101140.0;;;23.21;18.54
41383;BME280;27971;53.902;9.118;2022-11-20T09:13:17;101144.0;;;21.26;19.65
41383;BME280;27971;53.902;9.118;2022-11-20T09:15:20;101144.0;;;21.77;19.67
41383;BME280;27971;53.902;9.118;2022-11-20T09:17:23;101139.0;;;22.46;19.63
41383;BME280;27971;53.902;9.118;2022-11-20T09:19:25;101134.0;;;23.39;19.32
41383;BME280;27971;53.902;9.118;2022-11-20T09:21:29;101136.0;;;22.8;19.71
41383;BME280;27971;53.902;9.118;2022-11-20T09:23:33;101138.0;;;22.06;20.35
41383;BME280;27971;53.902;9.118;2022-11-20T09:25:34;101136.0;;;22.91;20.17
41383;BME280;27971;53.902;9.118;2022-11-20T09:27:37;101135.0;;;23.2;20.12
41383;BME280;27971;53.902;9.118;2022-11-20T09:29:39;101132.0;;;23.16;20.28
41383;BME280;27971;53.902;9.118;2022-11-20T09:31:41;101134.0;;;21.88;21.21
41383;BME280;27971;53.902;9.118;2022-11-20T09:33:44;101132.0;;;22.42;20.98
41383;BME280;27971;53.902;9.118;2022-11-20T09:35:46;101132.0;;;23.42;20.35
41383;BME280;27971;53.902;9.118;2022-11-20T09:37:49;101136.0;;;22.59;21.01
41383;BME280;27971;53.902;9.118;2022-11-20T09:39:51;101135.0;;;23.67;20.51
41383;BME280;27971;53.902;9.118;2022-11-20T09:42:05;101136.0;;;22.68;21.2
41383;BME280;27971;53.902;9.118;2022-11-20T09:44:02;101130.0;;;24.73;20.02
41383;BME280;27971;53.902;9.118;2022-11-20T09:46:07;101131.0;;;25.09;19.86
41383;BME280;27971;53.902;9.118;2022-11-20T09:48:18;101132.0;;;24.79;19.96
41383;BME280;27971;53.902;9.118;2022-11-20T09:50:19;101132.0;;;24.13;20.61
41383;BME280;27971;53.902;9.118;2022-11-20T09:52:18;101131.0;;;23.95;20.8
41383;BME280;27971;53.902;9.118;2022-11-20T09:54:16;101129.0;;;24.23;20.62
41383;BME280;27971;53.902;9.118;2022-11-20T09:56:17;101130.0;;;23.25;21.43
41383;BME280;27971;53.902;9.118;2022-11-20T09:58:25;101132.0;;;22.72;22.02
41383;BME280;27971;53.902;9.118;2022-11-20T10:00:21;101131.0;;;23.46;21.74
41383;BME280;27971;53.902;9.118;2022-11-20T10:02:28;101126.0;;;24.01;21.33
41383;BME280;27971;53.902;9.118;2022-11-20T10:04:30;101124.0;;;24.75;20.78
41383;BME280;27971;53.902;9.118;2022-11-20T10:06:31;101121.0;;;23.79;21.46
41383;BME280;27971;53.902;9.118;2022-11-20T10:08:39;101119.0;;;24.28;21.2
41383;BME280;27971;53.902;9.118;2022-11-20T10:10:41;101119.0;;;23.59;21.7
41383;BME280;27971;53.902;9.118;2022-11-20T10:12:51;101117.0;;;23.39;21.86
41383;BME280;27971;53.902;9.118;2022-11-20T10:14:53;101115.0;;;23.24;22.2
41383;BME280;27971;53.902;9.118;2022-11-20T10:16:54;101116.0;;;23.0;22.59
41383;BME280;27971;53.902;9.118;2022-11-20T10:18:58;101115.0;;;23.52;22.24
41383;BME280;27971;53.902;9.118;2022-11-20T10:20:55;101114.0;;;23.71;22.22
41383;BME280;27971;53.902;9.118;2022-11-20T10:23:05;101111.0;;;23.98;22.11
41383;BME280;27971;53.902;9.118;2022-11-20T10:24:56;101109.0;;;23.77;22.15
41383;BME280;27971;53.902;9.118;2022-11-20T10:27:03;101110.0;;;23.45;22.32
41383;BME280;27971;53.902;9.118;2022-11-20T10:29:09;101108.0;;;23.62;22.34
41383;BME280;27971;53.902;9.118;2022-11-20T10:31:08;101107.0;;;23.41;22.52
41383;BME280;27971;53.902;9.118;2022-11-20T10:33:11;101104.0;;;23.33;22.43
41383;BME280;27971;53.902;9.118;2022-11-20T10:35:19;101104.0;;;22.01;23.35
41383;BME280;27971;53.902;9.118;2022-11-20T10:37:14;101098.0;;;22.79;22.93
41383;BME280;27971;53.902;9.118;2022-11-20T10:39:20;101092.0;;;23.07;22.57
41383;BME280;27971;53.902;9.118;2022-11-20T10:41:20;101091.0;;;22.57;22.89
41383;BME280;27971;53.902;9.118;2022-11-20T10:43:22;101091.0;;;22.6;22.84
41383;BME280;27971;53.902;9.118;2022-11-20T10:45:31;101090.0;;;22.38;22.94
41383;BME280;27971;53.902;9.118;2022-11-20T10:47:25;101089.0;;;21.97;23.35
41383;BME280;27971;53.902;9.118;2022-11-20T10:49:27;101085.0;;;23.83;21.84
41383;BME280;27971;53.902;9.118;2022-11-20T10:51:35;101085.0;;;24.46;21.38
41383;BME280;27971;53.902;9.118;2022-11-20T10:53:43;101085.0;;;24.04;21.7
41383;BME280;27971;53.902;9.118;2022-11-20T10:55:42;101085.0;;;23.07;22.54